This is the latest recevied weather packets stored in our database for station/object BV5AB-33. If no packets are shown the sender has not sent any weather packets the latest 10 day(s).
| Time | Temp. | Humidity | Pressure | Rain* | Wind** | Luminosity | Snow |
|---|---|---|---|---|---|---|---|
| 1777433401 | 30° C | 48% | 981.9 hPa | 0 mm | - | - | - |
| 1777432201 | 30° C | 49% | 982.2 hPa | 0 mm | - | - | - |
| 1777431902 | 30° C | 48% | 982.2 hPa | 0 mm | - | - | - |
| 1777430101 | 30.56° C | 50% | 982.2 hPa | 0 mm | - | - | - |
| 1777428902 | 30.56° C | 48% | 982.2 hPa | 0 mm | - | - | - |
| 1777427402 | 30.56° C | 47% | 982.6 hPa | 0 mm | - | - | - |
| 1777424402 | 30° C | 51% | 982.7 hPa | 0 mm | - | - | - |
| 1777422902 | 28.89° C | 53% | 982.4 hPa | 0 mm | - | - | - |
| 1777420502 | 28.33° C | 57% | 981.9 hPa | 0 mm | - | - | - |
| 1777419902 | 28.33° C | 58% | 981.9 hPa | 0 mm | - | - | - |
| 1777419301 | 28.33° C | 58% | 981.8 hPa | 0 mm | - | - | - |
| 1777418702 | 27.78° C | 60% | 981.7 hPa | 0 mm | - | - | - |
| 1777418102 | 27.22° C | 62% | 981.9 hPa | 0 mm | - | - | - |
| 1777417502 | 26.67° C | 64% | 981.6 hPa | 0 mm | - | - | - |
| 1777413002 | 23.89° C | 70% | 981.1 hPa | 0 mm | - | - | - |
| 1777412402 | 23.89° C | 70% | 980.8 hPa | 0 mm | - | - | - |
| 1777412103 | 23.89° C | 70% | 980.7 hPa | 0 mm | - | - | - |
| 1777411802 | 23.89° C | 70% | 980.4 hPa | 0 mm | - | - | - |
| 1777410602 | 23.89° C | 70% | 980.3 hPa | 0 mm | - | - | - |
| 1777409702 | 23.89° C | 70% | 980.1 hPa | 0 mm | - | - | - |
| 1777409102 | 23.89° C | 70% | 980 hPa | 0 mm | - | - | - |
| 1777407303 | 24.44° C | 70% | 980.2 hPa | 0 mm | - | - | - |
| 1777407002 | 24.44° C | 70% | 980.3 hPa | 0 mm | - | - | - |
| 1777404902 | 24.44° C | 69% | 980.4 hPa | 0 mm | - | - | - |
| 1777401002 | 24.44° C | 68% | 980.4 hPa | 0 mm | - | - | - |
* Rain latest hour (hover to see other rain measurements)
** Current wind speed in m/s (hover to see current wind gust speed)